sensor_id;sensor_type;location;lat;lon;timestamp;pressure;altitude;pressure_sealevel;temperature;humidity
48778;BME280;34578;0.000;0.000;2023-05-22T00:00:46;96363.44;;;17.70;69.61
48778;BME280;34578;0.000;0.000;2023-05-22T00:05:46;96359.19;;;17.72;69.25
48778;BME280;34578;0.000;0.000;2023-05-22T00:10:47;96355.84;;;17.70;65.04
48778;BME280;34578;0.000;0.000;2023-05-22T00:15:47;96359.22;;;17.67;62.89
48778;BME280;34578;0.000;0.000;2023-05-22T00:20:48;96363.44;;;17.65;62.00
48778;BME280;34578;0.000;0.000;2023-05-22T00:25:49;96374.41;;;17.63;62.65
48778;BME280;34578;0.000;0.000;2023-05-22T00:30:49;96367.66;;;17.62;62.13
48778;BME280;34578;0.000;0.000;2023-05-22T00:35:50;96355.00;;;17.62;62.17
48778;BME280;34578;0.000;0.000;2023-05-22T00:40:51;96350.78;;;17.61;62.00
48778;BME280;34578;0.000;0.000;2023-05-22T00:45:51;96358.38;;;17.61;61.87
48778;BME280;34578;0.000;0.000;2023-05-22T00:50:54;96356.72;;;17.60;61.94
48778;BME280;34578;0.000;0.000;2023-05-22T00:55:56;96347.44;;;17.57;61.66
48778;BME280;34578;0.000;0.000;2023-05-22T01:00:57;96344.06;;;17.54;61.86
48778;BME280;34578;0.000;0.000;2023-05-22T01:05:58;96348.25;;;17.67;68.99
48778;BME280;34578;0.000;0.000;2023-05-22T01:11:17;96351.63;;;17.69;69.13
48778;BME280;34578;0.000;0.000;2023-05-22T01:16:28;96350.78;;;17.67;65.29
48778;BME280;34578;0.000;0.000;2023-05-22T01:27:00;96349.13;;;17.61;62.09
48778;BME280;34578;0.000;0.000;2023-05-22T01:32:12;96349.13;;;17.60;62.03
48778;BME280;34578;0.000;0.000;2023-05-22T01:37:13;96354.19;;;17.60;62.03
48778;BME280;34578;0.000;0.000;2023-05-22T01:42:14;96349.09;;;17.58;61.99
48778;BME280;34578;0.000;0.000;2023-05-22T01:47:15;96354.19;;;17.57;61.77
48778;BME280;34578;0.000;0.000;2023-05-22T01:52:36;96366.81;;;17.58;61.38
48778;BME280;34578;0.000;0.000;2023-05-22T01:57:46;96349.13;;;17.57;61.49
48778;BME280;34578;0.000;0.000;2023-05-22T02:02:51;96354.19;;;17.57;61.81
48778;BME280;34578;0.000;0.000;2023-05-22T02:07:55;96360.94;;;17.58;61.53
48778;BME280;34578;0.000;0.000;2023-05-22T02:12:58;96356.69;;;17.66;68.88
48778;BME280;34578;0.000;0.000;2023-05-22T02:17:59;96346.56;;;17.66;69.21
48778;BME280;34578;0.000;0.000;2023-05-22T02:23:00;96347.44;;;17.65;63.46
48778;BME280;34578;0.000;0.000;2023-05-22T02:28:03;96343.19;;;17.61;62.45
48778;BME280;34578;0.000;0.000;2023-05-22T02:33:03;96343.19;;;17.59;61.96
48778;BME280;34578;0.000;0.000;2023-05-22T02:38:05;96342.38;;;17.59;62.14
48778;BME280;34578;0.000;0.000;2023-05-22T02:43:06;96333.94;;;17.54;62.13
48778;BME280;34578;0.000;0.000;2023-05-22T02:48:06;96333.09;;;17.56;61.74
48778;BME280;34578;0.000;0.000;2023-05-22T02:53:07;96325.50;;;17.56;61.52
48778;BME280;34578;0.000;0.000;2023-05-22T02:58:10;96332.28;;;17.56;61.82
48778;BME280;34578;0.000;0.000;2023-05-22T03:03:11;96328.03;;;17.56;61.59
48778;BME280;34578;0.000;0.000;2023-05-22T03:08:11;96337.31;;;17.56;61.25
48778;BME280;34578;0.000;0.000;2023-05-22T03:13:12;96337.31;;;17.56;61.59
48778;BME280;34578;0.000;0.000;2023-05-22T03:18:12;96333.91;;;17.64;68.88
48778;BME280;34578;0.000;0.000;2023-05-22T03:23:13;96331.38;;;17.66;69.21
48778;BME280;34578;0.000;0.000;2023-05-22T03:28:14;96330.53;;;17.64;64.70
48778;BME280;34578;0.000;0.000;2023-05-22T03:33:15;96328.88;;;17.60;62.62
48778;BME280;34578;0.000;0.000;2023-05-22T03:38:16;96326.34;;;17.54;62.07
48778;BME280;34578;0.000;0.000;2023-05-22T03:43:16;96325.50;;;17.55;62.19
48778;BME280;34578;0.000;0.000;2023-05-22T03:48:17;96329.75;;;17.56;61.90
48778;BME280;34578;0.000;0.000;2023-05-22T03:53:18;96329.72;;;17.54;61.76
48778;BME280;34578;0.000;0.000;2023-05-22T03:58:18;96327.19;;;17.54;61.86
48778;BME280;34578;0.000;0.000;2023-05-22T04:03:19;96318.78;;;17.51;61.60
48778;BME280;34578;0.000;0.000;2023-05-22T04:08:19;96332.28;;;17.56;61.87
48778;BME280;34578;0.000;0.000;2023-05-22T04:13:19;96331.41;;;17.54;61.79
48778;BME280;34578;0.000;0.000;2023-05-22T04:18:20;96333.94;;;17.54;63.59
48778;BME280;34578;0.000;0.000;2023-05-22T04:23:20;96345.72;;;17.67;68.86
48778;BME280;34578;0.000;0.000;2023-05-22T04:28:21;96340.66;;;17.67;68.69
48778;BME280;34578;0.000;0.000;2023-05-22T04:33:24;96347.41;;;17.66;63.85
48778;BME280;34578;0.000;0.000;2023-05-22T04:38:25;96354.16;;;17.63;62.36
48778;BME280;34578;0.000;0.000;2023-05-22T04:43:28;96363.44;;;17.61;62.56
48778;BME280;34578;0.000;0.000;2023-05-22T04:48:31;96350.81;;;17.56;62.76
48778;BME280;34578;0.000;0.000;2023-05-22T04:53:33;96370.22;;;17.59;62.29
48778;BME280;34578;0.000;0.000;2023-05-22T04:58:33;96371.91;;;17.57;62.09
48778;BME280;34578;0.000;0.000;2023-05-22T05:03:36;96362.63;;;17.56;63.35
48778;BME280;34578;0.000;0.000;2023-05-22T05:08:38;96370.22;;;17.54;62.25
48778;BME280;34578;0.000;0.000;2023-05-22T05:13:38;96365.16;;;17.56;62.10
48778;BME280;34578;0.000;0.000;2023-05-22T05:18:39;96371.06;;;17.55;61.76
48778;BME280;34578;0.000;0.000;2023-05-22T05:23:40;96360.94;;;17.55;61.81
48778;BME280;34578;0.000;0.000;2023-05-22T05:28:40;96371.03;;;17.73;68.48
48778;BME280;34578;0.000;0.000;2023-05-22T05:33:42;96371.03;;;17.73;69.11
48778;BME280;34578;0.000;0.000;2023-05-22T05:38:49;96365.97;;;17.70;65.87
48778;BME280;34578;0.000;0.000;2023-05-22T05:43:50;96365.16;;;17.63;63.08
48778;BME280;34578;0.000;0.000;2023-05-22T05:48:56;96362.63;;;17.59;62.79
48778;BME280;34578;0.000;0.000;2023-05-22T05:53:57;96369.38;;;17.57;62.42
48778;BME280;34578;0.000;0.000;2023-05-22T05:58:58;96375.28;;;17.56;62.58
48778;BME280;34578;0.000;0.000;2023-05-22T06:04:11;96372.75;;;17.56;62.09
48778;BME280;34578;0.000;0.000;2023-05-22T06:09:13;96379.50;;;17.54;61.96
48778;BME280;34578;0.000;0.000;2023-05-22T06:14:32;96381.19;;;17.55;61.94
48778;BME280;34578;0.000;0.000;2023-05-22T06:19:32;96379.50;;;17.54;61.99
48778;BME280;34578;0.000;0.000;2023-05-22T06:24:33;96384.56;;;17.54;62.00
48778;BME280;34578;0.000;0.000;2023-05-22T06:29:39;96386.25;;;17.52;61.98
48778;BME280;34578;0.000;0.000;2023-05-22T06:34:41;96380.34;;;17.65;68.46
48778;BME280;34578;0.000;0.000;2023-05-22T06:39:43;96385.38;;;17.68;68.58
48778;BME280;34578;0.000;0.000;2023-05-22T06:44:47;96383.69;;;17.67;67.23
48778;BME280;34578;0.000;0.000;2023-05-22T06:49:47;96380.31;;;17.62;62.92
48778;BME280;34578;0.000;0.000;2023-05-22T06:54:49;96378.63;;;17.59;62.53
48778;BME280;34578;0.000;0.000;2023-05-22T06:59:49;96382.88;;;17.59;62.18
48778;BME280;34578;0.000;0.000;2023-05-22T07:05:16;96382.88;;;17.56;62.17
48778;BME280;34578;0.000;0.000;2023-05-22T07:10:24;96385.41;;;17.54;62.66
48778;BME280;34578;0.000;0.000;2023-05-22T07:15:26;96387.09;;;17.54;62.10
48778;BME280;34578;0.000;0.000;2023-05-22T07:20:30;96377.84;;;17.50;62.05
48778;BME280;34578;0.000;0.000;2023-05-22T07:25:41;96382.03;;;17.54;61.88
48778;BME280;34578;0.000;0.000;2023-05-22T07:30:42;96384.56;;;17.54;61.81
48778;BME280;34578;0.000;0.000;2023-05-22T07:35:43;96382.03;;;17.54;61.68
48778;BME280;34578;0.000;0.000;2023-05-22T07:40:44;96385.41;;;17.65;67.54
48778;BME280;34578;0.000;0.000;2023-05-22T07:45:45;96378.63;;;17.70;68.38
48778;BME280;34578;0.000;0.000;2023-05-22T07:50:48;96364.28;;;17.66;66.34
48778;BME280;34578;0.000;0.000;2023-05-22T07:55:49;96377.78;;;17.62;63.13
48778;BME280;34578;0.000;0.000;2023-05-22T08:00:50;96371.03;;;17.59;62.46
48778;BME280;34578;0.000;0.000;2023-05-22T08:05:50;96374.44;;;17.57;62.08
48778;BME280;34578;0.000;0.000;2023-05-22T08:10:51;96376.97;;;17.57;62.32
48778;BME280;34578;0.000;0.000;2023-05-22T08:15:52;96377.81;;;17.53;62.00
48778;BME280;34578;0.000;0.000;2023-05-22T08:20:53;96376.13;;;17.55;62.25
48778;BME280;34578;0.000;0.000;2023-05-22T08:25:53;96368.53;;;17.52;61.79
48778;BME280;34578;0.000;0.000;2023-05-22T08:30:53;96371.06;;;17.55;62.19
48778;BME280;34578;0.000;0.000;2023-05-22T08:35:54;96364.31;;;17.54;61.84
48778;BME280;34578;0.000;0.000;2023-05-22T08:40:54;96364.31;;;17.54;61.95
48778;BME280;34578;0.000;0.000;2023-05-22T08:46:04;96367.69;;;17.65;67.31
48778;BME280;34578;0.000;0.000;2023-05-22T08:51:06;96365.97;;;17.70;67.80
48778;BME280;34578;0.000;0.000;2023-05-22T08:56:07;96376.09;;;17.73;67.41
48778;BME280;34578;0.000;0.000;2023-05-22T09:01:07;96367.69;;;17.65;63.44
48778;BME280;34578;0.000;0.000;2023-05-22T09:06:08;96363.44;;;17.59;62.42
48778;BME280;34578;0.000;0.000;2023-05-22T09:11:10;96365.16;;;17.59;62.33
48778;BME280;34578;0.000;0.000;2023-05-22T09:16:12;96371.06;;;17.58;62.16
48778;BME280;34578;0.000;0.000;2023-05-22T09:21:13;96368.53;;;17.56;62.23
48778;BME280;34578;0.000;0.000;2023-05-22T09:26:16;96366.84;;;17.55;62.51
48778;BME280;34578;0.000;0.000;2023-05-22T09:31:16;96367.69;;;17.56;62.01
48778;BME280;34578;0.000;0.000;2023-05-22T09:36:17;96366.00;;;17.56;62.18
48778;BME280;34578;0.000;0.000;2023-05-22T09:41:20;96363.47;;;17.55;62.29
48778;BME280;34578;0.000;0.000;2023-05-22T09:46:21;96360.94;;;17.55;62.35
48778;BME280;34578;0.000;0.000;2023-05-22T09:51:22;96352.47;;;17.62;67.10
48778;BME280;34578;0.000;0.000;2023-05-22T09:56:27;96352.44;;;17.71;67.82
48778;BME280;34578;0.000;0.000;2023-05-22T10:01:27;96352.47;;;17.72;67.83
48778;BME280;34578;0.000;0.000;2023-05-22T10:06:30;96352.47;;;17.66;64.00
48778;BME280;34578;0.000;0.000;2023-05-22T10:11:31;96352.47;;;17.62;62.76
48778;BME280;34578;0.000;0.000;2023-05-22T10:16:34;96353.31;;;17.59;62.59
48778;BME280;34578;0.000;0.000;2023-05-22T10:21:37;96358.41;;;17.58;62.57
48778;BME280;34578;0.000;0.000;2023-05-22T10:26:41;96359.25;;;17.57;62.40
48778;BME280;34578;0.000;0.000;2023-05-22T10:31:57;96356.72;;;17.57;62.32
48778;BME280;34578;0.000;0.000;2023-05-22T10:37:20;96353.34;;;17.56;62.24
48778;BME280;34578;0.000;0.000;2023-05-22T10:42:22;96353.34;;;17.56;62.78
48778;BME280;34578;0.000;0.000;2023-05-22T10:47:22;96348.28;;;17.62;62.68
48778;BME280;34578;0.000;0.000;2023-05-22T10:52:23;96352.47;;;17.68;62.21
48778;BME280;34578;0.000;0.000;2023-05-22T10:57:23;96340.66;;;17.71;64.27
48778;BME280;34578;0.000;0.000;2023-05-22T11:02:25;96319.56;;;17.74;67.76
48778;BME280;34578;0.000;0.000;2023-05-22T11:07:39;96347.34;;;17.80;64.29
48778;BME280;34578;0.000;0.000;2023-05-22T11:12:40;96370.16;;;17.75;62.78
48778;BME280;34578;0.000;0.000;2023-05-22T11:17:41;96387.06;;;17.75;62.33
48778;BME280;34578;0.000;0.000;2023-05-22T11:27:56;96386.22;;;17.76;62.08
48778;BME280;34578;0.000;0.000;2023-05-22T11:32:58;96384.53;;;17.75;61.95
48778;BME280;34578;0.000;0.000;2023-05-22T11:38:03;96394.66;;;17.75;61.98
48778;BME280;34578;0.000;0.000;2023-05-22T11:43:04;96403.94;;;17.76;61.96
48778;BME280;34578;0.000;0.000;2023-05-22T11:48:04;96404.78;;;17.75;61.96
48778;BME280;34578;0.000;0.000;2023-05-22T11:53:07;96405.59;;;17.75;62.12
48778;BME280;34578;0.000;0.000;2023-05-22T11:58:08;96400.56;;;17.74;61.93
48778;BME280;34578;0.000;0.000;2023-05-22T12:03:08;96404.75;;;17.78;65.29
48778;BME280;34578;0.000;0.000;2023-05-22T12:08:09;96403.03;;;17.90;66.81
48778;BME280;34578;0.000;0.000;2023-05-22T12:13:09;96407.28;;;17.90;68.08
48778;BME280;34578;0.000;0.000;2023-05-22T12:18:10;96403.91;;;17.80;62.92
48778;BME280;34578;0.000;0.000;2023-05-22T12:23:20;96399.69;;;17.81;62.04
48778;BME280;34578;0.000;0.000;2023-05-22T12:28:21;96382.81;;;17.77;62.34
48778;BME280;34578;0.000;0.000;2023-05-22T12:33:28;96375.25;;;17.74;62.28
48778;BME280;34578;0.000;0.000;2023-05-22T12:38:30;96375.25;;;17.74;62.22
48778;BME280;34578;0.000;0.000;2023-05-22T12:43:30;96380.31;;;17.74;62.27
48778;BME280;34578;0.000;0.000;2023-05-22T12:48:31;96371.03;;;17.73;61.97
48778;BME280;34578;0.000;0.000;2023-05-22T12:53:31;96370.19;;;17.72;62.22
48778;BME280;34578;0.000;0.000;2023-05-22T12:58:31;96360.91;;;17.73;62.08
48778;BME280;34578;0.000;0.000;2023-05-22T13:03:32;96356.66;;;17.72;62.14
48778;BME280;34578;0.000;0.000;2023-05-22T13:08:32;96344.88;;;17.74;63.64
48778;BME280;34578;0.000;0.000;2023-05-22T13:13:32;96339.75;;;17.86;68.48
48778;BME280;34578;0.000;0.000;2023-05-22T13:18:33;96338.91;;;17.90;68.06
48778;BME280;34578;0.000;0.000;2023-05-22T13:23:33;96332.16;;;17.83;63.14
48778;BME280;34578;0.000;0.000;2023-05-22T13:28:33;96323.75;;;17.78;62.30
48778;BME280;34578;0.000;0.000;2023-05-22T13:33:34;96326.25;;;17.76;62.19
48778;BME280;34578;0.000;0.000;2023-05-22T13:38:34;96325.47;;;17.73;62.02
48778;BME280;34578;0.000;0.000;2023-05-22T13:43:34;96314.47;;;17.72;61.98
48778;BME280;34578;0.000;0.000;2023-05-22T13:48:35;96314.47;;;17.74;62.20
48778;BME280;34578;0.000;0.000;2023-05-22T13:53:35;96310.28;;;17.73;61.88
48778;BME280;34578;0.000;0.000;2023-05-22T13:58:37;96308.56;;;17.72;62.15
48778;BME280;34578;0.000;0.000;2023-05-22T14:03:40;96311.94;;;17.74;62.13
48778;BME280;34578;0.000;0.000;2023-05-22T14:08:40;96309.41;;;17.72;61.96
48778;BME280;34578;0.000;0.000;2023-05-22T14:13:41;96305.19;;;17.76;65.19
48778;BME280;34578;0.000;0.000;2023-05-22T14:18:42;96302.56;;;17.92;66.86
48778;BME280;34578;0.000;0.000;2023-05-22T14:23:42;96300.00;;;17.97;65.91
48778;BME280;34578;0.000;0.000;2023-05-22T14:28:42;96301.75;;;17.87;63.03
48778;BME280;34578;0.000;0.000;2023-05-22T14:33:43;96294.19;;;17.81;62.13
48778;BME280;34578;0.000;0.000;2023-05-22T14:38:43;96294.19;;;17.80;62.27
48778;BME280;34578;0.000;0.000;2023-05-22T14:43:43;96295.06;;;17.76;62.27
48778;BME280;34578;0.000;0.000;2023-05-22T14:48:44;96298.44;;;17.75;62.44
48778;BME280;34578;0.000;0.000;2023-05-22T14:53:44;96303.50;;;17.75;62.19
48778;BME280;34578;0.000;0.000;2023-05-22T14:58:45;96297.59;;;17.74;62.60
48778;BME280;34578;0.000;0.000;2023-05-22T15:03:45;96285.78;;;17.73;62.47
48778;BME280;34578;0.000;0.000;2023-05-22T15:08:46;96276.50;;;17.74;62.43
48778;BME280;34578;0.000;0.000;2023-05-22T15:13:46;96279.91;;;17.73;62.42
48778;BME280;34578;0.000;0.000;2023-05-22T15:18:47;96284.94;;;17.76;65.02
48778;BME280;34578;0.000;0.000;2023-05-22T15:23:47;96284.03;;;17.92;66.30
48778;BME280;34578;0.000;0.000;2023-05-22T15:28:47;96287.34;;;17.98;67.45
48778;BME280;34578;0.000;0.000;2023-05-22T15:33:48;96285.72;;;17.90;63.90
48778;BME280;34578;0.000;0.000;2023-05-22T15:38:48;96280.69;;;17.84;62.66
48778;BME280;34578;0.000;0.000;2023-05-22T15:43:50;96286.59;;;17.80;62.56
48778;BME280;34578;0.000;0.000;2023-05-22T15:48:52;96276.47;;;17.77;63.08
48778;BME280;34578;0.000;0.000;2023-05-22T15:53:53;96261.28;;;17.77;63.27
48778;BME280;34578;0.000;0.000;2023-05-22T15:58:53;96265.47;;;17.81;63.16
48778;BME280;34578;0.000;0.000;2023-05-22T16:03:54;96267.16;;;17.85;62.50
48778;BME280;34578;0.000;0.000;2023-05-22T16:08:54;96273.91;;;17.86;62.26
48778;BME280;34578;0.000;0.000;2023-05-22T16:13:54;96274.72;;;17.88;64.32
48778;BME280;34578;0.000;0.000;2023-05-22T16:18:55;96279.81;;;17.85;63.51
48778;BME280;34578;0.000;0.000;2023-05-22T16:23:55;96276.44;;;17.84;63.05
48778;BME280;34578;0.000;0.000;2023-05-22T16:28:56;96277.22;;;18.00;67.09
48778;BME280;34578;0.000;0.000;2023-05-22T16:33:57;96271.28;;;18.04;67.26
48778;BME280;34578;0.000;0.000;2023-05-22T16:38:57;96275.53;;;17.96;64.42
48778;BME280;34578;0.000;0.000;2023-05-22T16:43:57;96268.00;;;17.88;62.96
48778;BME280;34578;0.000;0.000;2023-05-22T16:48:58;96277.28;;;17.85;62.75
48778;BME280;34578;0.000;0.000;2023-05-22T16:53:58;96282.34;;;17.83;63.15
48778;BME280;34578;0.000;0.000;2023-05-22T16:58:59;96284.06;;;17.83;62.94
48778;BME280;34578;0.000;0.000;2023-05-22T17:03:59;96295.03;;;17.82;62.88
48778;BME280;34578;0.000;0.000;2023-05-22T17:09:00;96294.19;;;17.80;62.86
48778;BME280;34578;0.000;0.000;2023-05-22T17:14:00;96307.69;;;17.79;63.03
48778;BME280;34578;0.000;0.000;2023-05-22T17:19:01;96299.28;;;17.77;62.83
48778;BME280;34578;0.000;0.000;2023-05-22T17:24:01;96310.25;;;17.76;62.67
48778;BME280;34578;0.000;0.000;2023-05-22T17:29:01;96306.88;;;17.77;62.95
48778;BME280;34578;0.000;0.000;2023-05-22T17:34:02;96311.03;;;17.94;66.43
48778;BME280;34578;0.000;0.000;2023-05-22T17:39:03;96313.50;;;18.02;68.75
48778;BME280;34578;0.000;0.000;2023-05-22T17:44:03;96320.31;;;17.94;64.57
48778;BME280;34578;0.000;0.000;2023-05-22T17:49:04;96325.41;;;17.86;62.98
48778;BME280;34578;0.000;0.000;2023-05-22T17:54:04;96327.09;;;17.83;63.09
48778;BME280;34578;0.000;0.000;2023-05-22T17:59:07;96330.47;;;17.79;62.86
48778;BME280;34578;0.000;0.000;2023-05-22T18:04:07;96340.63;;;17.80;62.65
48778;BME280;34578;0.000;0.000;2023-05-22T18:09:07;96345.69;;;17.79;62.73
48778;BME280;34578;0.000;0.000;2023-05-22T18:14:09;96337.25;;;17.77;62.58
48778;BME280;34578;0.000;0.000;2023-05-22T18:19:09;96356.66;;;17.78;62.74
48778;BME280;34578;0.000;0.000;2023-05-22T18:24:11;96351.59;;;17.79;62.48
48778;BME280;34578;0.000;0.000;2023-05-22T18:29:12;96358.38;;;17.77;62.01
48778;BME280;34578;0.000;0.000;2023-05-22T18:34:12;96360.00;;;17.80;66.24
48778;BME280;34578;0.000;0.000;2023-05-22T18:39:12;96373.47;;;18.00;69.54
48778;BME280;34578;0.000;0.000;2023-05-22T18:44:13;96366.72;;;18.03;66.44
48778;BME280;34578;0.000;0.000;2023-05-22T18:49:14;96377.72;;;17.92;64.28
48778;BME280;34578;0.000;0.000;2023-05-22T18:54:14;96385.31;;;17.86;63.30
48778;BME280;34578;0.000;0.000;2023-05-22T18:59:15;96377.75;;;17.83;63.47
48778;BME280;34578;0.000;0.000;2023-05-22T19:04:16;96384.50;;;17.85;62.92
48778;BME280;34578;0.000;0.000;2023-05-22T19:09:16;96397.97;;;17.89;62.88
48778;BME280;34578;0.000;0.000;2023-05-22T19:14:16;96383.66;;;17.80;62.41
48778;BME280;34578;0.000;0.000;2023-05-22T19:19:17;96392.09;;;17.85;62.72
48778;BME280;34578;0.000;0.000;2023-05-22T19:24:17;96400.50;;;17.84;62.91
48778;BME280;34578;0.000;0.000;2023-05-22T19:29:17;96408.13;;;17.83;62.63
48778;BME280;34578;0.000;0.000;2023-05-22T19:34:18;96410.66;;;17.81;63.29
48778;BME280;34578;0.000;0.000;2023-05-22T19:39:18;96427.53;;;17.87;66.20
48778;BME280;34578;0.000;0.000;2023-05-22T19:44:18;96429.19;;;18.03;67.85
48778;BME280;34578;0.000;0.000;2023-05-22T19:49:19;96449.44;;;18.07;67.52
48778;BME280;34578;0.000;0.000;2023-05-22T19:54:19;96462.09;;;17.97;64.23
48778;BME280;34578;0.000;0.000;2023-05-22T19:59:20;96469.75;;;17.89;63.03
48778;BME280;34578;0.000;0.000;2023-05-22T20:04:20;96470.59;;;17.85;62.91
48778;BME280;34578;0.000;0.000;2023-05-22T20:09:21;96475.66;;;17.81;62.94
48778;BME280;34578;0.000;0.000;2023-05-22T20:14:21;96479.03;;;17.80;62.83
48778;BME280;34578;0.000;0.000;2023-05-22T20:19:21;96465.53;;;17.78;62.66
48778;BME280;34578;0.000;0.000;2023-05-22T20:24:23;96467.22;;;17.76;62.46
48778;BME280;34578;0.000;0.000;2023-05-22T20:29:24;96471.44;;;17.75;62.19
48778;BME280;34578;0.000;0.000;2023-05-22T20:34:25;96463.84;;;17.72;62.25
48778;BME280;34578;0.000;0.000;2023-05-22T20:39:25;96470.59;;;17.72;64.74
48778;BME280;34578;0.000;0.000;2023-05-22T20:44:25;96484.09;;;17.75;62.98
48778;BME280;34578;0.000;0.000;2023-05-22T20:49:26;96484.09;;;17.98;70.14
48778;BME280;34578;0.000;0.000;2023-05-22T20:54:27;96487.41;;;18.06;69.88
48778;BME280;34578;0.000;0.000;2023-05-22T20:59:33;96483.22;;;17.97;66.37
48778;BME280;34578;0.000;0.000;2023-05-22T21:04:36;96488.34;;;17.85;63.62
48778;BME280;34578;0.000;0.000;2023-05-22T21:09:36;96496.75;;;17.80;62.74
48778;BME280;34578;0.000;0.000;2023-05-22T21:14:37;96500.16;;;17.77;62.89
48778;BME280;34578;0.000;0.000;2023-05-22T21:19:37;96509.41;;;17.75;62.68
48778;BME280;34578;0.000;0.000;2023-05-22T21:24:40;96524.59;;;17.80;63.04
48778;BME280;34578;0.000;0.000;2023-05-22T21:29:40;96539.81;;;17.86;62.68
48778;BME280;34578;0.000;0.000;2023-05-22T21:34:41;96536.44;;;17.87;62.59
48778;BME280;34578;0.000;0.000;2023-05-22T21:39:41;96533.91;;;17.88;62.41
48778;BME280;34578;0.000;0.000;2023-05-22T21:44:41;96548.25;;;17.91;62.16
48778;BME280;34578;0.000;0.000;2023-05-22T21:49:42;96544.03;;;17.90;61.85
48778;BME280;34578;0.000;0.000;2023-05-22T21:54:42;96543.16;;;18.03;65.67
48778;BME280;34578;0.000;0.000;2023-05-22T21:59:42;96546.53;;;18.11;70.22
48778;BME280;34578;0.000;0.000;2023-05-22T22:04:43;96547.38;;;18.04;63.79
48778;BME280;34578;0.000;0.000;2023-05-22T22:09:43;96549.06;;;17.96;62.03
48778;BME280;34578;0.000;0.000;2023-05-22T22:14:43;96560.91;;;17.95;62.01
48778;BME280;34578;0.000;0.000;2023-05-22T22:19:44;96565.97;;;17.92;62.03
48778;BME280;34578;0.000;0.000;2023-05-22T22:24:44;96580.34;;;17.92;61.95
48778;BME280;34578;0.000;0.000;2023-05-22T22:29:45;96575.25;;;17.90;61.78
48778;BME280;34578;0.000;0.000;2023-05-22T22:34:45;96570.19;;;17.86;61.93
48778;BME280;34578;0.000;0.000;2023-05-22T22:39:46;96584.56;;;17.88;61.93
48778;BME280;34578;0.000;0.000;2023-05-22T22:44:47;96576.94;;;17.88;61.62
48778;BME280;34578;0.000;0.000;2023-05-22T22:49:47;96580.31;;;17.86;61.77
48778;BME280;34578;0.000;0.000;2023-05-22T22:54:48;96570.19;;;17.86;61.59
48778;BME280;34578;0.000;0.000;2023-05-22T22:59:49;96575.28;;;17.98;66.69
48778;BME280;34578;0.000;0.000;2023-05-22T23:04:51;96571.88;;;18.08;70.37
48778;BME280;34578;0.000;0.000;2023-05-22T23:09:52;96585.38;;;18.05;65.45
48778;BME280;34578;0.000;0.000;2023-05-22T23:14:52;96588.75;;;17.97;62.39
48778;BME280;34578;0.000;0.000;2023-05-22T23:19:53;96590.47;;;17.92;61.83
48778;BME280;34578;0.000;0.000;2023-05-22T23:24:53;96588.78;;;17.91;61.80
48778;BME280;34578;0.000;0.000;2023-05-22T23:29:53;96580.31;;;17.89;61.95
48778;BME280;34578;0.000;0.000;2023-05-22T23:34:56;96580.31;;;17.86;61.78
48778;BME280;34578;0.000;0.000;2023-05-22T23:39:56;96580.31;;;17.86;61.69
48778;BME280;34578;0.000;0.000;2023-05-22T23:44:57;96572.72;;;17.86;61.75
48778;BME280;34578;0.000;0.000;2023-05-22T23:49:57;96571.88;;;17.84;61.66
48778;BME280;34578;0.000;0.000;2023-05-22T23:54:58;96577.78;;;17.84;61.96
48778;BME280;34578;0.000;0.000;2023-05-22T23:59:59;96571.03;;;17.83;61.60
